sensor_id;sensor_type;location;lat;lon;timestamp;P1;durP1;ratioP1;P2;durP2;ratioP2
10603;SDS011;5349;41.554;23.274;2023-02-01T00:01:51;3.20;;;2.80;;
10603;SDS011;5349;41.554;23.274;2023-02-01T00:04:18;6.07;;;3.53;;
10603;SDS011;5349;41.554;23.274;2023-02-01T00:06:45;5.07;;;2.97;;
10603;SDS011;5349;41.554;23.274;2023-02-01T00:09:12;1.73;;;1.63;;
10603;SDS011;5349;41.554;23.274;2023-02-01T00:11:41;5.70;;;3.07;;
10603;SDS011;5349;41.554;23.274;2023-02-01T00:14:08;12.40;;;5.87;;
10603;SDS011;5349;41.554;23.274;2023-02-01T00:16:35;4.87;;;3.53;;
10603;SDS011;5349;41.554;23.274;2023-02-01T00:19:03;4.83;;;3.17;;
10603;SDS011;5349;41.554;23.274;2023-02-01T00:21:31;5.87;;;3.50;;
10603;SDS011;5349;41.554;23.274;2023-02-01T00:23:58;4.60;;;3.27;;
10603;SDS011;5349;41.554;23.274;2023-02-01T00:26:27;6.07;;;3.07;;
10603;SDS011;5349;41.554;23.274;2023-02-01T00:29:00;6.67;;;3.47;;
10603;SDS011;5349;41.554;23.274;2023-02-01T00:31:27;2.67;;;2.03;;
10603;SDS011;5349;41.554;23.274;2023-02-01T00:33:54;10.50;;;5.10;;
10603;SDS011;5349;41.554;23.274;2023-02-01T00:36:21;4.63;;;3.10;;
10603;SDS011;5349;41.554;23.274;2023-02-01T00:38:48;4.27;;;2.90;;
10603;SDS011;5349;41.554;23.274;2023-02-01T00:41:16;3.83;;;3.17;;
10603;SDS011;5349;41.554;23.274;2023-02-01T00:43:44;5.23;;;3.20;;
10603;SDS011;5349;41.554;23.274;2023-02-01T00:46:13;5.67;;;3.87;;
10603;SDS011;5349;41.554;23.274;2023-02-01T00:48:41;3.77;;;2.90;;
10603;SDS011;5349;41.554;23.274;2023-02-01T00:51:09;3.70;;;3.30;;
10603;SDS011;5349;41.554;23.274;2023-02-01T00:53:37;7.47;;;4.33;;
10603;SDS011;5349;41.554;23.274;2023-02-01T00:56:05;4.87;;;3.40;;
10603;SDS011;5349;41.554;23.274;2023-02-01T00:58:32;4.10;;;3.47;;
10603;SDS011;5349;41.554;23.274;2023-02-01T01:01:04;11.13;;;8.03;;
10603;SDS011;5349;41.554;23.274;2023-02-01T01:03:34;6.80;;;3.60;;
10603;SDS011;5349;41.554;23.274;2023-02-01T01:06:03;3.90;;;3.07;;
10603;SDS011;5349;41.554;23.274;2023-02-01T01:08:31;10.00;;;6.97;;
10603;SDS011;5349;41.554;23.274;2023-02-01T01:10:58;32.40;;;19.80;;
10603;SDS011;5349;41.554;23.274;2023-02-01T01:13:30;40.60;;;26.23;;
10603;SDS011;5349;41.554;23.274;2023-02-01T01:15:59;50.37;;;35.23;;
10603;SDS011;5349;41.554;23.274;2023-02-01T01:18:27;19.90;;;12.87;;
10603;SDS011;5349;41.554;23.274;2023-02-01T01:20:56;16.73;;;11.53;;
10603;SDS011;5349;41.554;23.274;2023-02-01T01:23:23;17.77;;;12.53;;
10603;SDS011;5349;41.554;23.274;2023-02-01T01:25:51;16.03;;;11.77;;
10603;SDS011;5349;41.554;23.274;2023-02-01T01:28:17;14.00;;;10.13;;
10603;SDS011;5349;41.554;23.274;2023-02-01T01:30:44;22.37;;;13.67;;
10603;SDS011;5349;41.554;23.274;2023-02-01T01:33:12;17.87;;;13.47;;
10603;SDS011;5349;41.554;23.274;2023-02-01T01:35:39;25.43;;;18.73;;
10603;SDS011;5349;41.554;23.274;2023-02-01T01:38:08;19.50;;;12.40;;
10603;SDS011;5349;41.554;23.274;2023-02-01T01:40:36;26.53;;;15.97;;
10603;SDS011;5349;41.554;23.274;2023-02-01T01:43:03;44.47;;;27.37;;
10603;SDS011;5349;41.554;23.274;2023-02-01T01:45:39;28.23;;;20.07;;
10603;SDS011;5349;41.554;23.274;2023-02-01T01:48:07;27.63;;;19.47;;
10603;SDS011;5349;41.554;23.274;2023-02-01T01:50:39;30.00;;;19.57;;
10603;SDS011;5349;41.554;23.274;2023-02-01T01:53:12;28.90;;;20.00;;
10603;SDS011;5349;41.554;23.274;2023-02-01T01:55:40;24.70;;;16.90;;
10603;SDS011;5349;41.554;23.274;2023-02-01T01:58:12;23.97;;;16.27;;
10603;SDS011;5349;41.554;23.274;2023-02-01T02:00:42;22.90;;;16.63;;
10603;SDS011;5349;41.554;23.274;2023-02-01T02:03:11;14.90;;;11.00;;
10603;SDS011;5349;41.554;23.274;2023-02-01T02:05:42;13.27;;;9.60;;
10603;SDS011;5349;41.554;23.274;2023-02-01T02:08:10;12.47;;;9.03;;
10603;SDS011;5349;41.554;23.274;2023-02-01T02:10:38;12.13;;;8.00;;
10603;SDS011;5349;41.554;23.274;2023-02-01T02:13:18;13.73;;;10.00;;
10603;SDS011;5349;41.554;23.274;2023-02-01T02:15:47;11.23;;;7.20;;
10603;SDS011;5349;41.554;23.274;2023-02-01T02:18:26;9.10;;;6.90;;
10603;SDS011;5349;41.554;23.274;2023-02-01T02:21:14;9.97;;;7.60;;
10603;SDS011;5349;41.554;23.274;2023-02-01T02:23:58;12.83;;;8.80;;
10603;SDS011;5349;41.554;23.274;2023-02-01T02:35:52;7.53;;;5.73;;
10603;SDS011;5349;41.554;23.274;2023-02-01T02:38:27;5.57;;;4.50;;
10603;SDS011;5349;41.554;23.274;2023-02-01T02:41:02;5.90;;;4.57;;
10603;SDS011;5349;41.554;23.274;2023-02-01T02:43:36;8.13;;;6.13;;
10603;SDS011;5349;41.554;23.274;2023-02-01T02:46:28;8.60;;;5.87;;
10603;SDS011;5349;41.554;23.274;2023-02-01T02:49:20;7.27;;;5.17;;
10603;SDS011;5349;41.554;23.274;2023-02-01T02:51:56;9.33;;;7.77;;
10603;SDS011;5349;41.554;23.274;2023-02-01T02:54:46;13.33;;;9.80;;
10603;SDS011;5349;41.554;23.274;2023-02-01T02:57:18;41.23;;;28.43;;
10603;SDS011;5349;41.554;23.274;2023-02-01T03:00:06;8.17;;;6.23;;
10603;SDS011;5349;41.554;23.274;2023-02-01T03:02:55;16.33;;;11.47;;
10603;SDS011;5349;41.554;23.274;2023-02-01T03:05:41;13.13;;;9.80;;
10603;SDS011;5349;41.554;23.274;2023-02-01T03:08:12;11.87;;;8.37;;
10603;SDS011;5349;41.554;23.274;2023-02-01T03:10:51;12.67;;;10.70;;
10603;SDS011;5349;41.554;23.274;2023-02-01T03:13:25;12.60;;;10.00;;
10603;SDS011;5349;41.554;23.274;2023-02-01T03:15:57;16.00;;;12.30;;
10603;SDS011;5349;41.554;23.274;2023-02-01T03:18:31;12.23;;;9.50;;
10603;SDS011;5349;41.554;23.274;2023-02-01T03:21:05;14.77;;;12.07;;
10603;SDS011;5349;41.554;23.274;2023-02-01T03:23:36;18.67;;;13.43;;
10603;SDS011;5349;41.554;23.274;2023-02-01T03:26:05;24.67;;;18.70;;
10603;SDS011;5349;41.554;23.274;2023-02-01T03:28:37;9.60;;;5.43;;
10603;SDS011;5349;41.554;23.274;2023-02-01T03:31:08;5.43;;;4.10;;
10603;SDS011;5349;41.554;23.274;2023-02-01T03:33:34;4.43;;;3.83;;
10603;SDS011;5349;41.554;23.274;2023-02-01T03:36:06;5.30;;;3.67;;
10603;SDS011;5349;41.554;23.274;2023-02-01T03:38:44;5.97;;;3.97;;
10603;SDS011;5349;41.554;23.274;2023-02-01T03:41:18;4.63;;;3.80;;
10603;SDS011;5349;41.554;23.274;2023-02-01T03:43:52;5.73;;;3.80;;
10603;SDS011;5349;41.554;23.274;2023-02-01T03:46:25;5.77;;;4.00;;
10603;SDS011;5349;41.554;23.274;2023-02-01T03:48:58;4.93;;;4.40;;
10603;SDS011;5349;41.554;23.274;2023-02-01T03:51:28;5.37;;;4.33;;
10603;SDS011;5349;41.554;23.274;2023-02-01T03:53:57;9.03;;;5.50;;
10603;SDS011;5349;41.554;23.274;2023-02-01T03:56:25;4.93;;;4.37;;
10603;SDS011;5349;41.554;23.274;2023-02-01T03:58:54;7.60;;;4.30;;
10603;SDS011;5349;41.554;23.274;2023-02-01T04:01:25;6.37;;;3.93;;
10603;SDS011;5349;41.554;23.274;2023-02-01T04:03:53;6.20;;;4.20;;
10603;SDS011;5349;41.554;23.274;2023-02-01T04:06:20;4.90;;;3.90;;
10603;SDS011;5349;41.554;23.274;2023-02-01T04:08:47;5.53;;;3.70;;
10603;SDS011;5349;41.554;23.274;2023-02-01T04:11:15;10.03;;;4.50;;
10603;SDS011;5349;41.554;23.274;2023-02-01T04:13:43;4.63;;;3.83;;
10603;SDS011;5349;41.554;23.274;2023-02-01T04:16:10;5.93;;;3.87;;
10603;SDS011;5349;41.554;23.274;2023-02-01T04:18:37;6.60;;;3.63;;
10603;SDS011;5349;41.554;23.274;2023-02-01T04:21:03;11.40;;;6.67;;
10603;SDS011;5349;41.554;23.274;2023-02-01T04:23:31;10.40;;;6.07;;
10603;SDS011;5349;41.554;23.274;2023-02-01T04:26:01;10.57;;;6.77;;
10603;SDS011;5349;41.554;23.274;2023-02-01T04:28:30;5.97;;;4.47;;
10603;SDS011;5349;41.554;23.274;2023-02-01T04:30:57;4.33;;;3.90;;
10603;SDS011;5349;41.554;23.274;2023-02-01T04:33:24;5.83;;;4.30;;
10603;SDS011;5349;41.554;23.274;2023-02-01T04:35:51;8.97;;;6.27;;
10603;SDS011;5349;41.554;23.274;2023-02-01T04:38:18;6.10;;;4.20;;
10603;SDS011;5349;41.554;23.274;2023-02-01T04:40:46;9.07;;;6.97;;
10603;SDS011;5349;41.554;23.274;2023-02-01T04:43:13;15.10;;;9.57;;
10603;SDS011;5349;41.554;23.274;2023-02-01T04:45:42;12.33;;;7.20;;
10603;SDS011;5349;41.554;23.274;2023-02-01T04:48:13;18.10;;;10.27;;
10603;SDS011;5349;41.554;23.274;2023-02-01T04:50:40;11.63;;;6.93;;
10603;SDS011;5349;41.554;23.274;2023-02-01T04:53:06;10.30;;;7.40;;
10603;SDS011;5349;41.554;23.274;2023-02-01T04:55:33;11.63;;;6.80;;
10603;SDS011;5349;41.554;23.274;2023-02-01T04:58:00;7.30;;;5.67;;
10603;SDS011;5349;41.554;23.274;2023-02-01T05:00:27;13.10;;;7.77;;
10603;SDS011;5349;41.554;23.274;2023-02-01T05:02:55;17.27;;;9.53;;
10603;SDS011;5349;41.554;23.274;2023-02-01T05:05:22;14.10;;;8.83;;
10603;SDS011;5349;41.554;23.274;2023-02-01T05:07:49;21.87;;;12.37;;
10603;SDS011;5349;41.554;23.274;2023-02-01T05:10:16;11.33;;;7.20;;
10603;SDS011;5349;41.554;23.274;2023-02-01T05:12:43;21.53;;;10.93;;
10603;SDS011;5349;41.554;23.274;2023-02-01T05:15:27;47.90;;;23.83;;
10603;SDS011;5349;41.554;23.274;2023-02-01T05:17:56;29.17;;;18.33;;
10603;SDS011;5349;41.554;23.274;2023-02-01T05:20:23;33.70;;;17.60;;
10603;SDS011;5349;41.554;23.274;2023-02-01T05:22:50;35.03;;;18.10;;
10603;SDS011;5349;41.554;23.274;2023-02-01T05:25:17;26.77;;;13.70;;
10603;SDS011;5349;41.554;23.274;2023-02-01T05:27:44;12.20;;;8.70;;
10603;SDS011;5349;41.554;23.274;2023-02-01T05:30:11;14.00;;;7.30;;
10603;SDS011;5349;41.554;23.274;2023-02-01T05:32:38;34.00;;;16.97;;
10603;SDS011;5349;41.554;23.274;2023-02-01T05:35:07;56.93;;;24.83;;
10603;SDS011;5349;41.554;23.274;2023-02-01T05:37:34;113.50;;;49.70;;
10603;SDS011;5349;41.554;23.274;2023-02-01T05:40:01;168.07;;;73.13;;
10603;SDS011;5349;41.554;23.274;2023-02-01T05:42:28;108.23;;;46.70;;
10603;SDS011;5349;41.554;23.274;2023-02-01T05:44:55;57.23;;;26.03;;
10603;SDS011;5349;41.554;23.274;2023-02-01T05:47:21;83.80;;;37.70;;
10603;SDS011;5349;41.554;23.274;2023-02-01T05:49:48;159.07;;;61.67;;
10603;SDS011;5349;41.554;23.274;2023-02-01T05:52:16;35.73;;;17.87;;
10603;SDS011;5349;41.554;23.274;2023-02-01T05:54:44;22.83;;;10.47;;
10603;SDS011;5349;41.554;23.274;2023-02-01T05:57:11;44.60;;;22.97;;
10603;SDS011;5349;41.554;23.274;2023-02-01T05:59:39;99.10;;;43.53;;
10603;SDS011;5349;41.554;23.274;2023-02-01T06:02:06;21.60;;;10.90;;
10603;SDS011;5349;41.554;23.274;2023-02-01T06:04:35;20.90;;;10.67;;
10603;SDS011;5349;41.554;23.274;2023-02-01T06:07:02;20.93;;;14.30;;
10603;SDS011;5349;41.554;23.274;2023-02-01T06:09:30;9.47;;;7.87;;
10603;SDS011;5349;41.554;23.274;2023-02-01T06:11:57;10.00;;;7.37;;
10603;SDS011;5349;41.554;23.274;2023-02-01T06:14:24;12.63;;;9.63;;
10603;SDS011;5349;41.554;23.274;2023-02-01T06:16:51;9.17;;;7.63;;
10603;SDS011;5349;41.554;23.274;2023-02-01T06:19:18;12.67;;;8.50;;
10603;SDS011;5349;41.554;23.274;2023-02-01T06:21:45;38.97;;;28.77;;
10603;SDS011;5349;41.554;23.274;2023-02-01T06:24:12;23.50;;;17.97;;
10603;SDS011;5349;41.554;23.274;2023-02-01T06:26:40;15.57;;;11.53;;
10603;SDS011;5349;41.554;23.274;2023-02-01T06:29:09;18.13;;;11.33;;
10603;SDS011;5349;41.554;23.274;2023-02-01T06:31:36;21.23;;;15.77;;
10603;SDS011;5349;41.554;23.274;2023-02-01T06:34:03;17.23;;;10.13;;
10603;SDS011;5349;41.554;23.274;2023-02-01T06:36:30;21.67;;;10.87;;
10603;SDS011;5349;41.554;23.274;2023-02-01T06:38:57;21.03;;;10.67;;
10603;SDS011;5349;41.554;23.274;2023-02-01T06:41:24;27.40;;;17.73;;
10603;SDS011;5349;41.554;23.274;2023-02-01T06:43:53;13.10;;;8.67;;
10603;SDS011;5349;41.554;23.274;2023-02-01T06:46:20;14.70;;;9.37;;
10603;SDS011;5349;41.554;23.274;2023-02-01T06:48:46;18.67;;;11.03;;
10603;SDS011;5349;41.554;23.274;2023-02-01T06:51:18;15.17;;;9.10;;
10603;SDS011;5349;41.554;23.274;2023-02-01T06:53:47;16.90;;;10.87;;
10603;SDS011;5349;41.554;23.274;2023-02-01T06:56:13;16.77;;;9.73;;
10603;SDS011;5349;41.554;23.274;2023-02-01T06:58:40;20.00;;;12.73;;
10603;SDS011;5349;41.554;23.274;2023-02-01T07:01:09;25.37;;;17.30;;
10603;SDS011;5349;41.554;23.274;2023-02-01T07:03:37;26.97;;;18.83;;
10603;SDS011;5349;41.554;23.274;2023-02-01T07:06:04;21.40;;;12.90;;
10603;SDS011;5349;41.554;23.274;2023-02-01T07:08:32;21.00;;;12.63;;
10603;SDS011;5349;41.554;23.274;2023-02-01T07:11:01;20.03;;;12.43;;
10603;SDS011;5349;41.554;23.274;2023-02-01T07:13:29;23.37;;;16.43;;
10603;SDS011;5349;41.554;23.274;2023-02-01T07:15:59;29.87;;;16.97;;
10603;SDS011;5349;41.554;23.274;2023-02-01T07:18:28;29.50;;;16.93;;
10603;SDS011;5349;41.554;23.274;2023-02-01T07:20:56;28.67;;;16.80;;
10603;SDS011;5349;41.554;23.274;2023-02-01T07:23:23;43.30;;;24.57;;
10603;SDS011;5349;41.554;23.274;2023-02-01T07:25:53;48.73;;;27.03;;
10603;SDS011;5349;41.554;23.274;2023-02-01T07:28:21;57.67;;;35.37;;
10603;SDS011;5349;41.554;23.274;2023-02-01T07:30:48;52.83;;;35.57;;
10603;SDS011;5349;41.554;23.274;2023-02-01T07:33:16;29.30;;;23.37;;
10603;SDS011;5349;41.554;23.274;2023-02-01T07:35:46;28.73;;;20.90;;
10603;SDS011;5349;41.554;23.274;2023-02-01T07:38:14;35.30;;;18.37;;
10603;SDS011;5349;41.554;23.274;2023-02-01T07:40:41;25.73;;;17.50;;
10603;SDS011;5349;41.554;23.274;2023-02-01T07:43:08;21.63;;;13.80;;
10603;SDS011;5349;41.554;23.274;2023-02-01T07:45:34;38.77;;;14.60;;
10603;SDS011;5349;41.554;23.274;2023-02-01T07:48:02;30.03;;;16.63;;
10603;SDS011;5349;41.554;23.274;2023-02-01T07:50:30;19.87;;;14.47;;
10603;SDS011;5349;41.554;23.274;2023-02-01T07:52:59;17.83;;;12.83;;
10603;SDS011;5349;41.554;23.274;2023-02-01T07:55:26;17.13;;;10.17;;
10603;SDS011;5349;41.554;23.274;2023-02-01T07:57:56;17.70;;;14.47;;
10603;SDS011;5349;41.554;23.274;2023-02-01T08:00:23;29.93;;;21.77;;
10603;SDS011;5349;41.554;23.274;2023-02-01T08:03:08;28.00;;;21.43;;
10603;SDS011;5349;41.554;23.274;2023-02-01T08:05:35;32.87;;;21.83;;
10603;SDS011;5349;41.554;23.274;2023-02-01T08:08:04;39.00;;;26.10;;
10603;SDS011;5349;41.554;23.274;2023-02-01T08:10:32;20.47;;;15.70;;
10603;SDS011;5349;41.554;23.274;2023-02-01T08:13:00;22.70;;;15.30;;
10603;SDS011;5349;41.554;23.274;2023-02-01T08:15:28;31.47;;;19.23;;
10603;SDS011;5349;41.554;23.274;2023-02-01T08:17:56;32.50;;;19.40;;
10603;SDS011;5349;41.554;23.274;2023-02-01T08:20:23;59.90;;;39.90;;
10603;SDS011;5349;41.554;23.274;2023-02-01T08:22:51;42.00;;;26.60;;
10603;SDS011;5349;41.554;23.274;2023-02-01T08:25:19;64.47;;;36.47;;
10603;SDS011;5349;41.554;23.274;2023-02-01T08:27:46;18.37;;;13.20;;
10603;SDS011;5349;41.554;23.274;2023-02-01T08:30:13;17.73;;;11.63;;
10603;SDS011;5349;41.554;23.274;2023-02-01T08:32:40;14.67;;;10.57;;
10603;SDS011;5349;41.554;23.274;2023-02-01T08:35:07;6.10;;;4.83;;
10603;SDS011;5349;41.554;23.274;2023-02-01T08:37:35;7.17;;;5.80;;
10603;SDS011;5349;41.554;23.274;2023-02-01T08:40:01;7.37;;;4.50;;
10603;SDS011;5349;41.554;23.274;2023-02-01T08:42:30;6.50;;;4.27;;
10603;SDS011;5349;41.554;23.274;2023-02-01T08:45:14;7.37;;;4.40;;
10603;SDS011;5349;41.554;23.274;2023-02-01T08:47:41;8.53;;;5.63;;
10603;SDS011;5349;41.554;23.274;2023-02-01T08:50:09;14.37;;;7.50;;
10603;SDS011;5349;41.554;23.274;2023-02-01T08:52:36;9.53;;;5.57;;
10603;SDS011;5349;41.554;23.274;2023-02-01T08:55:03;15.83;;;9.53;;
10603;SDS011;5349;41.554;23.274;2023-02-01T08:57:32;21.27;;;9.00;;
10603;SDS011;5349;41.554;23.274;2023-02-01T08:59:59;5.20;;;3.60;;
10603;SDS011;5349;41.554;23.274;2023-02-01T09:02:26;7.90;;;4.27;;
10603;SDS011;5349;41.554;23.274;2023-02-01T09:04:53;4.23;;;3.40;;
10603;SDS011;5349;41.554;23.274;2023-02-01T09:07:19;5.63;;;4.23;;
10603;SDS011;5349;41.554;23.274;2023-02-01T09:09:46;5.93;;;4.47;;
10603;SDS011;5349;41.554;23.274;2023-02-01T09:12:13;4.20;;;3.23;;
10603;SDS011;5349;41.554;23.274;2023-02-01T09:14:42;6.37;;;4.33;;
10603;SDS011;5349;41.554;23.274;2023-02-01T09:17:08;7.57;;;4.00;;
10603;SDS011;5349;41.554;23.274;2023-02-01T09:19:35;5.13;;;3.50;;
10603;SDS011;5349;41.554;23.274;2023-02-01T09:22:02;5.47;;;3.70;;
10603;SDS011;5349;41.554;23.274;2023-02-01T09:24:29;5.47;;;4.03;;
10603;SDS011;5349;41.554;23.274;2023-02-01T09:26:56;8.60;;;4.13;;
10603;SDS011;5349;41.554;23.274;2023-02-01T09:29:22;6.70;;;4.57;;
10603;SDS011;5349;41.554;23.274;2023-02-01T09:31:51;6.50;;;3.97;;
10603;SDS011;5349;41.554;23.274;2023-02-01T09:34:17;6.00;;;3.70;;
10603;SDS011;5349;41.554;23.274;2023-02-01T09:36:44;19.73;;;12.93;;
10603;SDS011;5349;41.554;23.274;2023-02-01T09:39:11;7.23;;;4.97;;
10603;SDS011;5349;41.554;23.274;2023-02-01T09:41:41;8.80;;;6.20;;
10603;SDS011;5349;41.554;23.274;2023-02-01T09:47:19;15.07;;;7.63;;
10603;SDS011;5349;41.554;23.274;2023-02-01T09:49:49;15.67;;;11.03;;
10603;SDS011;5349;41.554;23.274;2023-02-01T09:52:23;7.57;;;4.87;;
10603;SDS011;5349;41.554;23.274;2023-02-01T09:54:55;7.50;;;5.30;;
10603;SDS011;5349;41.554;23.274;2023-02-01T09:57:28;5.87;;;4.53;;
10603;SDS011;5349;41.554;23.274;2023-02-01T10:00:09;13.50;;;7.07;;
10603;SDS011;5349;41.554;23.274;2023-02-01T10:02:44;7.13;;;5.60;;
10603;SDS011;5349;41.554;23.274;2023-02-01T10:05:13;8.60;;;5.30;;
10603;SDS011;5349;41.554;23.274;2023-02-01T10:07:43;6.07;;;4.53;;
10603;SDS011;5349;41.554;23.274;2023-02-01T10:10:23;10.30;;;5.00;;
10603;SDS011;5349;41.554;23.274;2023-02-01T10:13:03;8.23;;;4.37;;
10603;SDS011;5349;41.554;23.274;2023-02-01T10:15:50;5.37;;;4.27;;
10603;SDS011;5349;41.554;23.274;2023-02-01T10:18:30;6.83;;;4.83;;
10603;SDS011;5349;41.554;23.274;2023-02-01T10:21:28;13.60;;;8.10;;
10603;SDS011;5349;41.554;23.274;2023-02-01T10:24:12;20.60;;;12.67;;
10603;SDS011;5349;41.554;23.274;2023-02-01T10:26:47;27.23;;;12.47;;
10603;SDS011;5349;41.554;23.274;2023-02-01T10:29:22;7.83;;;4.97;;
10603;SDS011;5349;41.554;23.274;2023-02-01T10:31:51;29.30;;;14.70;;
10603;SDS011;5349;41.554;23.274;2023-02-01T10:34:21;7.00;;;4.17;;
10603;SDS011;5349;41.554;23.274;2023-02-01T10:36:53;11.32;;;5.20;;
10603;SDS011;5349;41.554;23.274;2023-02-01T10:39:22;22.97;;;11.37;;
10603;SDS011;5349;41.554;23.274;2023-02-01T10:41:49;9.20;;;4.57;;
10603;SDS011;5349;41.554;23.274;2023-02-01T10:44:17;17.97;;;7.53;;
10603;SDS011;5349;41.554;23.274;2023-02-01T10:46:48;8.33;;;4.50;;
10603;SDS011;5349;41.554;23.274;2023-02-01T10:49:17;7.27;;;3.87;;
10603;SDS011;5349;41.554;23.274;2023-02-01T10:51:47;8.27;;;3.47;;
10603;SDS011;5349;41.554;23.274;2023-02-01T10:54:18;10.67;;;4.10;;
10603;SDS011;5349;41.554;23.274;2023-02-01T10:56:47;7.35;;;3.85;;
10603;SDS011;5349;41.554;23.274;2023-02-01T10:59:15;8.93;;;4.57;;
10603;SDS011;5349;41.554;23.274;2023-02-01T11:01:44;9.73;;;6.33;;
10603;SDS011;5349;41.554;23.274;2023-02-01T11:04:13;8.65;;;5.50;;
10603;SDS011;5349;41.554;23.274;2023-02-01T11:06:41;11.13;;;7.85;;
10603;SDS011;5349;41.554;23.274;2023-02-01T11:09:15;6.33;;;3.93;;
10603;SDS011;5349;41.554;23.274;2023-02-01T11:11:58;9.10;;;5.40;;
10603;SDS011;5349;41.554;23.274;2023-02-01T11:14:27;6.70;;;4.10;;
10603;SDS011;5349;41.554;23.274;2023-02-01T11:17:00;24.73;;;9.30;;
10603;SDS011;5349;41.554;23.274;2023-02-01T11:19:38;9.70;;;6.80;;
10603;SDS011;5349;41.554;23.274;2023-02-01T11:22:05;8.97;;;5.00;;
10603;SDS011;5349;41.554;23.274;2023-02-01T11:24:34;11.90;;;3.72;;
10603;SDS011;5349;41.554;23.274;2023-02-01T11:27:03;8.73;;;7.00;;
10603;SDS011;5349;41.554;23.274;2023-02-01T11:29:39;6.93;;;3.93;;
10603;SDS011;5349;41.554;23.274;2023-02-01T11:32:09;3.43;;;2.17;;
10603;SDS011;5349;41.554;23.274;2023-02-01T11:34:40;3.33;;;2.40;;
10603;SDS011;5349;41.554;23.274;2023-02-01T11:37:13;4.97;;;3.00;;
10603;SDS011;5349;41.554;23.274;2023-02-01T11:39:52;4.83;;;3.13;;
10603;SDS011;5349;41.554;23.274;2023-02-01T11:42:21;6.00;;;3.20;;
10603;SDS011;5349;41.554;23.274;2023-02-01T11:44:48;6.23;;;3.10;;
10603;SDS011;5349;41.554;23.274;2023-02-01T11:47:18;5.87;;;2.37;;
10603;SDS011;5349;41.554;23.274;2023-02-01T11:49:46;5.73;;;3.17;;
10603;SDS011;5349;41.554;23.274;2023-02-01T11:52:15;8.37;;;2.97;;
10603;SDS011;5349;41.554;23.274;2023-02-01T11:54:52;4.23;;;1.83;;
10603;SDS011;5349;41.554;23.274;2023-02-01T11:57:33;3.87;;;2.00;;
10603;SDS011;5349;41.554;23.274;2023-02-01T12:00:25;2.73;;;1.80;;
10603;SDS011;5349;41.554;23.274;2023-02-01T12:03:06;4.00;;;2.27;;
10603;SDS011;5349;41.554;23.274;2023-02-01T12:05:57;5.67;;;2.40;;
10603;SDS011;5349;41.554;23.274;2023-02-01T12:08:32;5.80;;;3.00;;
10603;SDS011;5349;41.554;23.274;2023-02-01T12:11:22;3.17;;;2.20;;
10603;SDS011;5349;41.554;23.274;2023-02-01T12:14:01;5.50;;;2.67;;
10603;SDS011;5349;41.554;23.274;2023-02-01T12:16:37;5.37;;;2.90;;
10603;SDS011;5349;41.554;23.274;2023-02-01T12:19:16;3.80;;;2.30;;
10603;SDS011;5349;41.554;23.274;2023-02-01T12:21:55;3.43;;;2.10;;
10603;SDS011;5349;41.554;23.274;2023-02-01T12:24:44;5.03;;;2.63;;
10603;SDS011;5349;41.554;23.274;2023-02-01T12:30:18;2.87;;;1.80;;
10603;SDS011;5349;41.554;23.274;2023-02-01T12:33:07;3.53;;;2.47;;
10603;SDS011;5349;41.554;23.274;2023-02-01T12:38:42;2.93;;;2.43;;
10603;SDS011;5349;41.554;23.274;2023-02-01T12:41:21;2.87;;;2.30;;
10603;SDS011;5349;41.554;23.274;2023-02-01T12:44:03;7.93;;;4.00;;
10603;SDS011;5349;41.554;23.274;2023-02-01T12:46:35;4.20;;;3.03;;
10603;SDS011;5349;41.554;23.274;2023-02-01T12:49:08;4.70;;;3.03;;
10603;SDS011;5349;41.554;23.274;2023-02-01T12:51:41;6.87;;;3.63;;
10603;SDS011;5349;41.554;23.274;2023-02-01T12:54:11;5.63;;;3.70;;
10603;SDS011;5349;41.554;23.274;2023-02-01T12:56:49;5.30;;;2.90;;
10603;SDS011;5349;41.554;23.274;2023-02-01T12:59:22;6.37;;;3.00;;
10603;SDS011;5349;41.554;23.274;2023-02-01T13:01:55;3.53;;;1.93;;
10603;SDS011;5349;41.554;23.274;2023-02-01T13:04:26;2.67;;;2.10;;
10603;SDS011;5349;41.554;23.274;2023-02-01T13:07:00;3.70;;;2.23;;
10603;SDS011;5349;41.554;23.274;2023-02-01T13:09:34;16.83;;;7.47;;
10603;SDS011;5349;41.554;23.274;2023-02-01T13:12:08;22.13;;;11.53;;
10603;SDS011;5349;41.554;23.274;2023-02-01T13:14:42;5.13;;;3.30;;
10603;SDS011;5349;41.554;23.274;2023-02-01T13:17:14;3.47;;;1.87;;
10603;SDS011;5349;41.554;23.274;2023-02-01T13:19:44;3.40;;;1.93;;
10603;SDS011;5349;41.554;23.274;2023-02-01T13:22:17;3.83;;;1.93;;
10603;SDS011;5349;41.554;23.274;2023-02-01T13:24:48;4.87;;;2.67;;
10603;SDS011;5349;41.554;23.274;2023-02-01T13:27:18;5.57;;;2.23;;
10603;SDS011;5349;41.554;23.274;2023-02-01T13:29:49;1.87;;;1.57;;
10603;SDS011;5349;41.554;23.274;2023-02-01T13:32:25;5.83;;;3.30;;
10603;SDS011;5349;41.554;23.274;2023-02-01T13:38:11;3.80;;;2.10;;
10603;SDS011;5349;41.554;23.274;2023-02-01T13:41:04;5.63;;;2.90;;
10603;SDS011;5349;41.554;23.274;2023-02-01T13:43:40;5.93;;;3.50;;
10603;SDS011;5349;41.554;23.274;2023-02-01T13:46:12;10.10;;;5.90;;
10603;SDS011;5349;41.554;23.274;2023-02-01T13:48:41;9.13;;;4.50;;
10603;SDS011;5349;41.554;23.274;2023-02-01T13:51:15;7.13;;;4.07;;
10603;SDS011;5349;41.554;23.274;2023-02-01T13:53:56;5.10;;;3.27;;
10603;SDS011;5349;41.554;23.274;2023-02-01T13:56:23;4.90;;;3.23;;
10603;SDS011;5349;41.554;23.274;2023-02-01T13:58:51;17.13;;;8.97;;
10603;SDS011;5349;41.554;23.274;2023-02-01T14:01:33;4.43;;;3.23;;
10603;SDS011;5349;41.554;23.274;2023-02-01T14:04:01;5.43;;;3.13;;
10603;SDS011;5349;41.554;23.274;2023-02-01T14:06:44;18.23;;;9.03;;
10603;SDS011;5349;41.554;23.274;2023-02-01T14:09:15;18.47;;;9.50;;
10603;SDS011;5349;41.554;23.274;2023-02-01T14:11:48;7.10;;;4.63;;
10603;SDS011;5349;41.554;23.274;2023-02-01T14:26:05;3.83;;;2.50;;
10603;SDS011;5349;41.554;23.274;2023-02-01T14:28:39;20.93;;;12.93;;
10603;SDS011;5349;41.554;23.274;2023-02-01T14:31:17;10.37;;;5.93;;
10603;SDS011;5349;41.554;23.274;2023-02-01T14:33:58;9.40;;;5.37;;
10603;SDS011;5349;41.554;23.274;2023-02-01T14:36:38;4.43;;;3.03;;
10603;SDS011;5349;41.554;23.274;2023-02-01T14:39:18;3.80;;;2.57;;
10603;SDS011;5349;41.554;23.274;2023-02-01T14:41:52;5.87;;;4.00;;
10603;SDS011;5349;41.554;23.274;2023-02-01T14:44:23;4.90;;;3.17;;
10603;SDS011;5349;41.554;23.274;2023-02-01T14:47:26;5.63;;;3.80;;
10603;SDS011;5349;41.554;23.274;2023-02-01T14:50:02;8.33;;;5.13;;
10603;SDS011;5349;41.554;23.274;2023-02-01T14:52:38;5.53;;;4.47;;
10603;SDS011;5349;41.554;23.274;2023-02-01T14:55:09;4.53;;;2.67;;
10603;SDS011;5349;41.554;23.274;2023-02-01T14:57:40;5.67;;;3.90;;
10603;SDS011;5349;41.554;23.274;2023-02-01T15:00:18;5.20;;;3.30;;
10603;SDS011;5349;41.554;23.274;2023-02-01T15:02:47;6.47;;;4.27;;
10603;SDS011;5349;41.554;23.274;2023-02-01T15:05:30;4.27;;;2.83;;
10603;SDS011;5349;41.554;23.274;2023-02-01T15:08:02;3.43;;;2.60;;
10603;SDS011;5349;41.554;23.274;2023-02-01T15:10:39;6.73;;;4.37;;
10603;SDS011;5349;41.554;23.274;2023-02-01T15:13:19;5.20;;;2.83;;
10603;SDS011;5349;41.554;23.274;2023-02-01T15:16:01;5.10;;;3.77;;
10603;SDS011;5349;41.554;23.274;2023-02-01T15:18:32;8.23;;;5.63;;
10603;SDS011;5349;41.554;23.274;2023-02-01T15:21:01;8.60;;;5.77;;
10603;SDS011;5349;41.554;23.274;2023-02-01T15:23:29;5.00;;;3.37;;
10603;SDS011;5349;41.554;23.274;2023-02-01T15:25:56;7.07;;;5.03;;
10603;SDS011;5349;41.554;23.274;2023-02-01T15:28:24;15.23;;;8.00;;
10603;SDS011;5349;41.554;23.274;2023-02-01T15:30:53;16.80;;;9.43;;
10603;SDS011;5349;41.554;23.274;2023-02-01T15:33:22;10.40;;;7.90;;
10603;SDS011;5349;41.554;23.274;2023-02-01T15:35:51;15.80;;;10.37;;